Time;durP1;ratioP1;P1;durP2;ratioP2;P2;SDS_P1;SDS_P2;PMS_P1;PMS_P2;Temp;Humidity;BMP_temperature;BMP_pressure;BME280_temperature;BME280_humidity;BME280_pressure;Samples;Min_cycle;Max_cycle;Signal;HPM_P1;HPM_P2
2023/03/14 00:00:20;;;;;;;;;;;9.70;99.90;;;;;;5052327;28;19996;-46
2023/03/14 00:02:47;;;;;;;;;;;9.80;99.90;;;;;;5052598;28;19949;-45
2023/03/14 00:05:14;;;;;;;;;;;9.80;99.90;;;;;;5073691;28;19983;-42
2023/03/14 00:07:40;;;;;;;;;;;9.80;99.90;;;;;;5052612;28;20071;-40
2023/03/14 00:10:08;;;;;;;;;;;9.90;99.90;;;;;;5052828;28;20000;-42
2023/03/14 00:12:36;;;;;;;;;;;9.90;99.90;;;;;;5044975;28;19979;-42
2023/03/14 00:15:04;;;;;;;;;;;10.00;99.90;;;;;;5053456;28;20461;-41
2023/03/14 00:17:31;;;;;;;;;;;10.00;99.90;;;;;;5087162;28;20368;-44
2023/03/14 00:20:03;;;;;;;;;;;10.10;99.90;;;;;;5070590;28;19979;-45
2023/03/14 00:22:30;;;;;;;;;;;10.10;99.90;;;;;;5069764;28;20243;-45
2023/03/14 00:24:57;;;;;;;;;;;10.20;99.90;;;;;;5051908;28;19950;-43
2023/03/14 00:27:23;;;;;;;;;;;10.20;99.90;;;;;;5042410;28;19942;-41
2023/03/14 00:29:51;;;;;;;;;;;10.20;99.90;;;;;;5069854;28;19954;-43
2023/03/14 00:32:18;;;;;;;;;;;10.30;99.90;;;;;;5052378;28;20410;-42
2023/03/14 00:34:45;;;;;;;;;;;10.20;99.90;;;;;;5078166;28;19990;-44
2023/03/14 00:37:11;;;;;;;;;;;10.30;99.90;;;;;;5054769;28;19982;-42
2023/03/14 00:39:38;;;;;;;;;;;10.30;99.90;;;;;;5053220;28;20001;-40
2023/03/14 00:42:05;;;;;;;;;;;10.30;99.90;;;;;;5052528;28;19956;-42
2023/03/14 00:44:31;;;;;;;;;;;10.40;99.90;;;;;;5053460;28;20388;-46
2023/03/14 00:46:59;;;;;;;;;;;10.40;99.90;;;;;;5069268;28;20409;-44
2023/03/14 00:49:26;;;;;;;;;;;10.40;99.90;;;;;;5063830;28;19987;-44
2023/03/14 00:51:52;;;;;;;;;;;10.50;99.90;;;;;;5053163;28;19952;-42
2023/03/14 00:54:19;;;;;;;;;;;10.50;99.90;;;;;;5071151;28;20016;-41
2023/03/14 00:56:46;;;;;;;;;;;10.50;99.90;;;;;;5055145;28;19991;-46
2023/03/14 00:59:12;;;;;;;;;;;10.40;99.90;;;;;;5039603;28;19996;-44
2023/03/14 01:01:39;;;;;;;;;;;10.40;99.90;;;;;;5070229;28;19954;-43
2023/03/14 01:04:07;;;;;;;;;;;10.40;99.90;;;;;;5056358;28;19949;-39
2023/03/14 01:06:34;;;;;;;;;;;10.40;99.90;;;;;;5068019;28;19993;-43
2023/03/14 01:09:00;;;;;;;;;;;10.40;99.90;;;;;;5060970;28;19947;-43
2023/03/14 01:11:27;;;;;;;;;;;10.40;99.90;;;;;;5058349;28;20057;-41
2023/03/14 01:13:54;;;;;;;;;;;10.30;99.90;;;;;;5067571;28;19995;-42
2023/03/14 01:16:21;;;;;;;;;;;10.40;99.90;;;;;;5056714;28;19948;-43
2023/03/14 01:18:48;;;;;;;;;;;10.30;99.90;;;;;;5056228;28;20400;-44
2023/03/14 01:21:17;;;;;;;;;;;10.30;99.90;;;;;;5055781;28;20290;-43
2023/03/14 01:23:43;;;;;;;;;;;10.30;99.90;;;;;;5047108;28;20005;-42
2023/03/14 01:26:10;;;;;;;;;;;10.30;99.90;;;;;;5066618;28;20027;-43
2023/03/14 01:28:37;;;;;;;;;;;10.30;99.90;;;;;;5051088;28;20381;-46
2023/03/14 01:31:04;;;;;;;;;;;10.30;99.90;;;;;;5055621;28;19946;-46
2023/03/14 01:33:30;;;;;;;;;;;10.30;99.90;;;;;;5073787;28;19950;-44
2023/03/14 01:35:57;;;;;;;;;;;10.30;99.90;;;;;;5082624;28;19992;-44
2023/03/14 01:38:25;;;;;;;;;;;10.30;99.90;;;;;;5073096;28;19983;-44
2023/03/14 01:40:52;;;;;;;;;;;10.30;99.90;;;;;;5056742;28;19991;-42
2023/03/14 01:43:19;;;;;;;;;;;10.30;99.90;;;;;;5055713;28;20020;-42
2023/03/14 01:46:08;;;;;;;;;;;10.20;99.90;;;;;;5074925;28;19938;-46
2023/03/14 01:48:36;;;;;;;;;;;10.20;99.90;;;;;;5047666;28;19950;-42
2023/03/14 01:51:02;;;;;;;;;;;10.20;99.90;;;;;;5056907;28;19949;-43
2023/03/14 01:53:30;;;;;;;;;;;10.20;99.90;;;;;;5043866;28;20024;-44
2023/03/14 01:55:57;;;;;;;;;;;10.20;99.90;;;;;;5075710;28;20016;-47
2023/03/14 01:58:25;;;;;;;;;;;10.10;99.90;;;;;;5055958;28;20034;-44
2023/03/14 02:00:51;;;;;;;;;;;10.10;99.90;;;;;;5071495;28;19949;-43
2023/03/14 02:03:18;;;;;;;;;;;10.10;99.90;;;;;;5060223;28;20053;-43
2023/03/14 02:05:46;;;;;;;;;;;10.10;99.90;;;;;;5063976;28;20372;-44
2023/03/14 02:08:14;;;;;;;;;;;10.20;99.90;;;;;;5080704;28;20327;-42
2023/03/14 02:10:42;;;;;;;;;;;10.10;99.90;;;;;;5072700;28;20354;-46
2023/03/14 02:13:09;;;;;;;;;;;10.10;99.90;;;;;;5074677;28;20388;-43
2023/03/14 02:15:36;;;;;;;;;;;10.10;99.90;;;;;;5084291;28;20008;-43
2023/03/14 02:18:03;;;;;;;;;;;10.00;99.90;;;;;;5054882;28;20073;-40
2023/03/14 02:20:31;;;;;;;;;;;10.00;99.90;;;;;;5073540;28;20461;-44
2023/03/14 02:22:58;;;;;;;;;;;10.00;99.90;;;;;;5066221;28;20009;-42
2023/03/14 02:25:25;;;;;;;;;;;9.90;99.90;;;;;;5077526;28;19977;-43
2023/03/14 02:27:53;;;;;;;;;;;9.90;99.90;;;;;;5069537;28;19955;-41
2023/03/14 02:30:20;;;;;;;;;;;9.80;99.90;;;;;;5072933;28;19993;-42
2023/03/14 02:32:47;;;;;;;;;;;9.90;99.90;;;;;;5078017;28;20033;-44
2023/03/14 02:35:15;;;;;;;;;;;9.80;99.90;;;;;;5060728;28;19963;-42
2023/03/14 02:37:42;;;;;;;;;;;9.80;99.90;;;;;;5081083;28;19999;-43
2023/03/14 02:40:09;;;;;;;;;;;9.90;99.90;;;;;;5049719;28;20006;-42
2023/03/14 02:42:36;;;;;;;;;;;9.90;99.90;;;;;;5062935;28;19999;-41
2023/03/14 02:45:18;;;;;;;;;;;9.80;99.90;;;;;;5055009;28;20009;-39
2023/03/14 02:47:47;;;;;;;;;;;9.80;99.90;;;;;;5078682;28;19945;-43
2023/03/14 02:50:15;;;;;;;;;;;9.80;99.90;;;;;;5071574;28;19998;-39
2023/03/14 02:52:42;;;;;;;;;;;9.80;99.90;;;;;;5045696;28;20398;-43
2023/03/14 02:55:09;;;;;;;;;;;9.80;99.90;;;;;;5062183;28;20422;-41
2023/03/14 02:57:35;;;;;;;;;;;9.80;99.90;;;;;;5066059;28;20402;-41
2023/03/14 03:00:03;;;;;;;;;;;9.80;99.90;;;;;;5072747;28;20398;-42
2023/03/14 03:02:30;;;;;;;;;;;9.80;99.90;;;;;;5040314;28;19961;-42
2023/03/14 03:04:58;;;;;;;;;;;9.80;99.90;;;;;;5056821;28;19946;-42
2023/03/14 03:07:24;;;;;;;;;;;9.70;99.90;;;;;;5078236;28;19940;-47
2023/03/14 03:09:51;;;;;;;;;;;9.70;99.90;;;;;;5053769;28;20030;-41
2023/03/14 03:12:18;;;;;;;;;;;9.70;99.90;;;;;;5067846;28;19950;-45
2023/03/14 03:14:44;;;;;;;;;;;9.70;99.90;;;;;;5073895;28;20330;-43
2023/03/14 03:17:11;;;;;;;;;;;9.70;99.90;;;;;;5068672;28;20337;-45
2023/03/14 03:19:38;;;;;;;;;;;9.70;99.90;;;;;;5054798;28;19965;-43
2023/03/14 03:22:06;;;;;;;;;;;9.70;99.90;;;;;;5054952;28;20472;-43
2023/03/14 03:24:32;;;;;;;;;;;9.60;99.90;;;;;;5072848;28;19981;-43
2023/03/14 03:26:59;;;;;;;;;;;9.60;99.90;;;;;;5066107;28;20002;-43
2023/03/14 03:29:26;;;;;;;;;;;9.60;99.90;;;;;;5070192;28;20433;-45
2023/03/14 03:31:52;;;;;;;;;;;9.60;99.90;;;;;;5072009;28;20273;-44
2023/03/14 03:34:19;;;;;;;;;;;9.60;99.90;;;;;;5054177;28;20000;-42
2023/03/14 03:36:46;;;;;;;;;;;9.50;99.90;;;;;;5070961;28;19946;-43
2023/03/14 03:39:14;;;;;;;;;;;9.60;99.90;;;;;;5053579;28;20029;-45
2023/03/14 03:41:40;;;;;;;;;;;9.60;99.90;;;;;;5049581;28;19998;-45
2023/03/14 03:44:07;;;;;;;;;;;9.60;99.90;;;;;;5072248;28;20386;-39
2023/03/14 03:46:33;;;;;;;;;;;9.60;99.90;;;;;;5052825;28;20380;-45
2023/03/14 03:49:00;;;;;;;;;;;9.60;99.90;;;;;;5060846;28;20014;-45
2023/03/14 03:51:27;;;;;;;;;;;9.60;99.90;;;;;;5066223;28;20386;-43
2023/03/14 03:53:54;;;;;;;;;;;9.60;99.90;;;;;;5044782;28;20479;-47
2023/03/14 03:56:22;;;;;;;;;;;9.50;99.90;;;;;;5055686;28;20047;-46
2023/03/14 03:58:48;;;;;;;;;;;9.50;99.90;;;;;;5054109;28;20036;-45
2023/03/14 04:01:15;;;;;;;;;;;9.50;99.90;;;;;;5072085;28;19949;-43
2023/03/14 04:03:42;;;;;;;;;;;9.50;99.90;;;;;;5053407;28;20423;-45
2023/03/14 04:06:09;;;;;;;;;;;9.50;99.90;;;;;;5063210;28;19953;-43
2023/03/14 04:08:35;;;;;;;;;;;9.50;99.90;;;;;;5054711;28;20025;-42
2023/03/14 04:11:02;;;;;;;;;;;9.40;99.90;;;;;;5066872;28;20002;-42
2023/03/14 04:13:30;;;;;;;;;;;9.40;99.90;;;;;;5055682;28;20002;-43
2023/03/14 04:15:57;;;;;;;;;;;9.40;99.90;;;;;;5055237;28;21308;-45
2023/03/14 04:18:24;;;;;;;;;;;9.40;99.90;;;;;;5072040;28;19992;-45
2023/03/14 04:20:52;;;;;;;;;;;9.40;99.90;;;;;;5067766;28;20059;-44
2023/03/14 04:23:18;;;;;;;;;;;9.40;99.90;;;;;;5068521;28;19947;-43
2023/03/14 04:25:45;;;;;;;;;;;9.40;99.90;;;;;;5076945;28;19984;-46
2023/03/14 04:28:12;;;;;;;;;;;9.40;99.90;;;;;;5058472;28;19950;-44
2023/03/14 04:30:39;;;;;;;;;;;9.40;99.90;;;;;;5075458;28;19972;-45
2023/03/14 04:33:07;;;;;;;;;;;9.40;99.90;;;;;;5070820;28;20047;-47
2023/03/14 04:35:33;;;;;;;;;;;9.40;99.90;;;;;;5055121;28;20027;-48
2023/03/14 04:38:00;;;;;;;;;;;9.40;99.90;;;;;;5046264;28;20018;-43
2023/03/14 04:40:27;;;;;;;;;;;9.30;99.90;;;;;;5067061;28;19983;-48
2023/03/14 04:42:53;;;;;;;;;;;9.30;99.90;;;;;;5071573;28;19948;-44
2023/03/14 04:45:20;;;;;;;;;;;9.30;99.90;;;;;;5084462;28;19995;-46
2023/03/14 04:47:48;;;;;;;;;;;9.30;99.90;;;;;;5077784;28;19949;-44
2023/03/14 04:50:14;;;;;;;;;;;9.30;99.90;;;;;;5070025;28;19939;-38
2023/03/14 04:52:41;;;;;;;;;;;9.30;99.90;;;;;;5055865;28;19981;-41
2023/03/14 04:55:08;;;;;;;;;;;9.30;99.90;;;;;;5071431;28;20015;-46
2023/03/14 04:57:34;;;;;;;;;;;9.30;99.90;;;;;;5063646;28;19996;-45
2023/03/14 05:00:06;;;;;;;;;;;9.30;99.90;;;;;;5078384;28;19944;-46
2023/03/14 05:02:32;;;;;;;;;;;9.30;99.90;;;;;;5055165;28;19942;-45
2023/03/14 05:05:00;;;;;;;;;;;9.40;99.90;;;;;;5057653;28;20493;-43
2023/03/14 05:07:27;;;;;;;;;;;9.30;99.90;;;;;;5080419;28;20313;-46
2023/03/14 05:09:53;;;;;;;;;;;9.30;99.90;;;;;;5049719;28;20400;-43
2023/03/14 05:12:20;;;;;;;;;;;9.30;99.90;;;;;;5055990;28;19946;-45
2023/03/14 05:14:47;;;;;;;;;;;9.30;99.90;;;;;;5073244;28;19949;-46
2023/03/14 05:17:14;;;;;;;;;;;9.40;99.90;;;;;;5064523;28;19997;-44
2023/03/14 05:19:40;;;;;;;;;;;9.30;99.90;;;;;;5073351;28;20363;-44
2023/03/14 05:22:08;;;;;;;;;;;9.30;99.90;;;;;;5074465;28;19946;-42
2023/03/14 05:24:35;;;;;;;;;;;9.40;99.90;;;;;;5074147;28;19986;-45
2023/03/14 05:27:02;;;;;;;;;;;9.40;99.90;;;;;;5059928;28;19944;-48
2023/03/14 05:29:28;;;;;;;;;;;9.40;99.90;;;;;;5065527;28;20205;-44
2023/03/14 05:31:55;;;;;;;;;;;9.40;99.90;;;;;;5076440;28;19995;-47
2023/03/14 05:34:22;;;;;;;;;;;9.40;99.90;;;;;;5057603;28;19953;-47
2023/03/14 05:36:48;;;;;;;;;;;9.40;99.90;;;;;;5078657;28;20463;-46
2023/03/14 05:39:16;;;;;;;;;;;9.40;99.90;;;;;;5073575;28;19997;-46
2023/03/14 05:41:43;;;;;;;;;;;9.40;99.90;;;;;;5074983;28;19949;-42
2023/03/14 05:44:09;;;;;;;;;;;9.30;99.90;;;;;;5056624;28;20421;-42
2023/03/14 05:46:36;;;;;;;;;;;9.40;99.90;;;;;;5078116;28;19953;-47
2023/03/14 05:49:03;;;;;;;;;;;9.30;99.90;;;;;;5084006;28;20032;-44
2023/03/14 05:51:29;;;;;;;;;;;9.30;99.90;;;;;;5065934;28;20019;-42
2023/03/14 05:53:56;;;;;;;;;;;9.30;99.90;;;;;;5057026;28;20321;-42
2023/03/14 05:56:24;;;;;;;;;;;9.30;99.90;;;;;;5056121;28;20372;-40
2023/03/14 05:58:51;;;;;;;;;;;9.20;99.90;;;;;;5078005;28;19943;-44
2023/03/14 06:01:17;;;;;;;;;;;9.20;99.90;;;;;;5064087;28;20004;-45
2023/03/14 06:03:44;;;;;;;;;;;9.20;99.90;;;;;;5055030;28;19983;-44
2023/03/14 06:06:10;;;;;;;;;;;9.20;99.90;;;;;;5058757;28;20034;-46
2023/03/14 06:08:37;;;;;;;;;;;9.20;99.90;;;;;;5064623;28;20104;-42
2023/03/14 06:11:04;;;;;;;;;;;9.20;99.90;;;;;;5048348;28;20477;-46
2023/03/14 06:13:32;;;;;;;;;;;9.20;99.90;;;;;;5054983;28;19980;-44
2023/03/14 06:15:58;;;;;;;;;;;9.20;99.90;;;;;;5075256;28;20365;-47
2023/03/14 06:18:25;;;;;;;;;;;9.10;99.90;;;;;;5048508;28;19994;-47
2023/03/14 06:20:54;;;;;;;;;;;9.10;99.90;;;;;;5052710;28;20017;-44
2023/03/14 06:23:20;;;;;;;;;;;9.20;99.90;;;;;;5053358;28;19947;-44
2023/03/14 06:25:47;;;;;;;;;;;9.10;99.90;;;;;;5049423;28;20816;-43
2023/03/14 06:28:14;;;;;;;;;;;9.10;99.90;;;;;;5070685;28;20406;-48
2023/03/14 06:30:42;;;;;;;;;;;9.10;99.90;;;;;;5066370;28;19992;-47
2023/03/14 06:33:08;;;;;;;;;;;9.10;99.90;;;;;;5048485;28;20024;-48
2023/03/14 06:35:35;;;;;;;;;;;9.10;99.90;;;;;;5072201;28;19960;-51
2023/03/14 06:38:01;;;;;;;;;;;9.10;99.90;;;;;;5072586;28;19951;-48
2023/03/14 06:40:28;;;;;;;;;;;9.10;99.90;;;;;;5052849;28;19989;-47
2023/03/14 06:42:55;;;;;;;;;;;9.10;99.90;;;;;;5053659;28;20007;-45
2023/03/14 06:45:21;;;;;;;;;;;9.10;99.90;;;;;;5051173;28;19948;-46
2023/03/14 06:47:49;;;;;;;;;;;9.10;99.90;;;;;;5053629;28;19997;-46
2023/03/14 06:50:16;;;;;;;;;;;9.10;99.90;;;;;;5071392;28;19941;-43
2023/03/14 06:52:47;;;;;;;;;;;9.10;99.90;;;;;;5047999;28;19995;-45
2023/03/14 06:55:14;;;;;;;;;;;9.10;99.90;;;;;;5071260;28;19939;-47
2023/03/14 06:57:41;;;;;;;;;;;9.10;99.90;;;;;;5071640;28;19945;-41
2023/03/14 07:00:08;;;;;;;;;;;9.10;99.90;;;;;;5055361;28;19953;-44
2023/03/14 07:02:35;;;;;;;;;;;9.10;99.90;;;;;;5067145;28;19988;-50
2023/03/14 07:05:03;;;;;;;;;;;9.10;99.90;;;;;;5077153;28;20435;-56
2023/03/14 07:07:30;;;;;;;;;;;9.10;99.90;;;;;;5076183;28;19976;-50
2023/03/14 07:09:56;;;;;;;;;;;9.10;99.90;;;;;;5076447;28;19949;-53
2023/03/14 07:12:23;;;;;;;;;;;9.10;99.90;;;;;;5073955;28;20447;-49
2023/03/14 07:14:50;;;;;;;;;;;9.00;99.90;;;;;;5075023;28;19950;-53
2023/03/14 07:17:16;;;;;;;;;;;9.00;99.90;;;;;;5055988;28;20383;-45
2023/03/14 07:19:43;;;;;;;;;;;9.00;99.90;;;;;;5047761;28;19998;-51
2023/03/14 07:22:11;;;;;;;;;;;8.90;99.90;;;;;;5050085;28;20327;-50
2023/03/14 07:24:37;;;;;;;;;;;8.80;99.90;;;;;;5048968;28;19943;-52
2023/03/14 07:27:04;;;;;;;;;;;8.70;99.90;;;;;;5050847;28;20002;-45
2023/03/14 07:29:31;;;;;;;;;;;8.50;99.90;;;;;;5048261;28;19994;-47
2023/03/14 07:31:57;;;;;;;;;;;8.30;99.90;;;;;;5040876;28;19946;-53
2023/03/14 07:34:24;;;;;;;;;;;8.10;99.90;;;;;;5057056;28;20416;-55
2023/03/14 07:36:51;;;;;;;;;;;7.90;99.90;;;;;;5057769;28;20295;-58
2023/03/14 07:39:19;;;;;;;;;;;7.70;99.90;;;;;;5048976;28;20357;-58
2023/03/14 07:41:45;;;;;;;;;;;7.60;99.90;;;;;;5046405;28;19941;-57
2023/03/14 07:44:12;;;;;;;;;;;7.40;99.90;;;;;;5042949;28;19992;-56
2023/03/14 07:46:39;;;;;;;;;;;7.20;99.90;;;;;;5042542;28;20002;-55
2023/03/14 07:49:05;;;;;;;;;;;7.00;99.90;;;;;;5050252;28;19943;-52
2023/03/14 07:51:32;;;;;;;;;;;6.70;99.90;;;;;;5050455;28;19971;-57
2023/03/14 07:53:59;;;;;;;;;;;6.40;99.90;;;;;;5051451;28;20000;-56
2023/03/14 07:56:27;;;;;;;;;;;6.20;99.90;;;;;;5050425;28;20015;-56
2023/03/14 07:58:53;;;;;;;;;;;6.00;99.90;;;;;;5051074;28;19979;-55
2023/03/14 08:01:20;;;;;;;;;;;5.80;99.90;;;;;;5047650;28;19946;-43
2023/03/14 08:03:46;;;;;;;;;;;5.70;99.90;;;;;;5046104;28;19989;-51
2023/03/14 08:06:13;;;;;;;;;;;5.60;99.90;;;;;;5043121;28;20354;-47
2023/03/14 08:08:40;;;;;;;;;;;5.50;99.90;;;;;;5050423;28;19968;-48
2023/03/14 08:11:08;;;;;;;;;;;5.40;99.90;;;;;;5051026;28;19989;-50
2023/03/14 08:13:36;;;;;;;;;;;5.30;99.90;;;;;;5051109;28;20402;-45
2023/03/14 08:16:03;;;;;;;;;;;5.20;99.90;;;;;;5054832;28;20427;-48
2023/03/14 08:18:29;;;;;;;;;;;5.20;99.90;;;;;;5055977;28;20344;-45
2023/03/14 08:20:56;;;;;;;;;;;5.20;99.90;;;;;;5064920;28;20024;-42
2023/03/14 08:23:22;;;;;;;;;;;5.20;99.90;;;;;;5056434;28;20007;-45
2023/03/14 08:25:49;;;;;;;;;;;5.20;99.90;;;;;;5038516;28;19991;-43
2023/03/14 08:28:16;;;;;;;;;;;5.20;99.90;;;;;;5038766;28;20243;-46
2023/03/14 08:30:44;;;;;;;;;;;5.30;99.90;;;;;;5038597;28;19959;-48
2023/03/14 08:33:10;;;;;;;;;;;5.30;99.90;;;;;;5038487;28;20007;-44
2023/03/14 08:35:38;;;;;;;;;;;5.30;99.90;;;;;;5050971;28;19987;-45
2023/03/14 08:38:04;;;;;;;;;;;5.30;99.90;;;;;;5058182;28;20060;-47
2023/03/14 08:40:31;;;;;;;;;;;5.30;99.90;;;;;;5058443;28;19992;-46
2023/03/14 08:42:57;;;;;;;;;;;5.40;99.90;;;;;;5074658;28;20003;-48
2023/03/14 08:45:24;;;;;;;;;;;5.40;99.90;;;;;;5075700;28;20005;-45
2023/03/14 08:47:52;;;;;;;;;;;5.40;99.90;;;;;;5075983;28;19944;-43
2023/03/14 08:50:19;;;;;;;;;;;5.50;99.90;;;;;;5057994;28;19939;-45
2023/03/14 08:52:46;;;;;;;;;;;5.40;99.90;;;;;;5075809;28;19996;-45
2023/03/14 08:55:12;;;;;;;;;;;5.50;99.90;;;;;;5075837;28;19950;-45
2023/03/14 08:57:39;;;;;;;;;;;5.50;99.90;;;;;;5075869;28;20472;-42
2023/03/14 09:00:11;;;;;;;;;;;5.50;99.90;;;;;;5058037;28;19948;-45
2023/03/14 09:02:38;;;;;;;;;;;5.50;99.90;;;;;;5074937;28;20054;-44
2023/03/14 09:05:07;;;;;;;;;;;5.60;99.90;;;;;;5075367;28;20448;-45
2023/03/14 09:07:33;;;;;;;;;;;5.60;99.90;;;;;;5057980;28;19950;-45
2023/03/14 09:10:00;;;;;;;;;;;5.60;99.90;;;;;;5075576;28;20369;-45
2023/03/14 09:12:26;;;;;;;;;;;5.70;99.90;;;;;;5075397;28;20415;-46
2023/03/14 09:14:53;;;;;;;;;;;5.80;99.90;;;;;;5075334;28;20337;-46
2023/03/14 09:17:20;;;;;;;;;;;5.80;99.90;;;;;;5075120;28;20365;-45
2023/03/14 09:19:46;;;;;;;;;;;5.80;99.90;;;;;;5075221;28;19965;-48
2023/03/14 09:22:14;;;;;;;;;;;5.90;99.90;;;;;;5057759;28;19943;-46
2023/03/14 09:24:41;;;;;;;;;;;6.00;99.90;;;;;;5074579;28;20372;-44
2023/03/14 09:27:08;;;;;;;;;;;6.00;99.90;;;;;;5053665;28;19942;-47
2023/03/14 09:29:34;;;;;;;;;;;6.00;99.90;;;;;;5075017;28;19966;-41
2023/03/14 09:32:01;;;;;;;;;;;6.10;99.90;;;;;;5057073;28;19994;-44
2023/03/14 09:34:28;;;;;;;;;;;6.20;99.90;;;;;;5074624;28;19941;-47
2023/03/14 09:36:54;;;;;;;;;;;6.20;99.90;;;;;;5074986;28;20481;-45
2023/03/14 09:39:22;;;;;;;;;;;6.30;99.90;;;;;;5056280;28;19962;-43
2023/03/14 09:41:49;;;;;;;;;;;6.40;99.90;;;;;;5057498;28;19992;-45
2023/03/14 09:44:16;;;;;;;;;;;6.50;99.90;;;;;;5073575;28;19994;-45
2023/03/14 09:46:44;;;;;;;;;;;6.60;99.90;;;;;;5074844;28;20349;-41
2023/03/14 09:49:11;;;;;;;;;;;6.70;99.90;;;;;;5074600;28;20355;-40
2023/03/14 09:51:38;;;;;;;;;;;6.80;99.90;;;;;;5057125;28;19949;-45
2023/03/14 09:54:05;;;;;;;;;;;6.80;99.90;;;;;;5056999;28;20324;-44
2023/03/14 09:56:33;;;;;;;;;;;6.80;99.90;;;;;;5056617;28;19962;-46
2023/03/14 09:59:00;;;;;;;;;;;6.90;99.90;;;;;;5074722;28;20427;-43
2023/03/14 10:01:28;;;;;;;;;;;6.90;99.90;;;;;;5045224;28;19999;-41
2023/03/14 10:03:55;;;;;;;;;;;6.90;99.90;;;;;;5055611;28;19995;-47
2023/03/14 10:06:26;;;;;;;;;;;6.90;99.90;;;;;;5060085;28;19948;-46
2023/03/14 10:08:53;;;;;;;;;;;6.80;99.90;;;;;;5052949;28;20299;-47
2023/03/14 10:11:20;;;;;;;;;;;6.70;99.90;;;;;;5035212;28;19954;-48
2023/03/14 10:14:02;;;;;;;;;;;6.70;99.90;;;;;;5035225;28;19985;-48
2023/03/14 10:16:29;;;;;;;;;;;6.60;99.90;;;;;;5035070;28;20284;-40
2023/03/14 10:18:59;;;;;;;;;;;6.60;99.90;;;;;;5052315;28;20052;-42
2023/03/14 10:21:26;;;;;;;;;;;6.60;99.90;;;;;;5035321;28;19945;-45
2023/03/14 10:23:53;;;;;;;;;;;6.60;99.90;;;;;;5052423;28;19948;-45
2023/03/14 10:26:24;;;;;;;;;;;6.70;99.90;;;;;;5052543;28;19998;-46
2023/03/14 10:28:53;;;;;;;;;;;6.60;99.90;;;;;;5052587;28;19957;-48
2023/03/14 10:31:19;;;;;;;;;;;6.70;99.90;;;;;;5034773;28;20005;-38
2023/03/14 10:33:58;;;;;;;;;;;6.60;99.90;;;;;;5059414;28;20029;-45
2023/03/14 10:36:25;;;;;;;;;;;6.70;99.90;;;;;;5055790;28;20159;-46
2023/03/14 10:38:52;;;;;;;;;;;6.60;99.90;;;;;;5083847;28;19969;-42
2023/03/14 10:41:20;;;;;;;;;;;6.60;99.90;;;;;;5074310;28;19944;-41
2023/03/14 10:43:47;;;;;;;;;;;6.70;99.90;;;;;;5058161;28;19996;-44
2023/03/14 10:46:16;;;;;;;;;;;6.60;99.90;;;;;;5071900;28;19949;-42
2023/03/14 10:48:45;;;;;;;;;;;6.60;99.90;;;;;;5072086;28;20390;-41
2023/03/14 10:51:12;;;;;;;;;;;6.70;99.90;;;;;;5071923;28;20385;-44
2023/03/14 10:53:40;;;;;;;;;;;6.80;99.90;;;;;;5053112;28;19947;-44
2023/03/14 10:56:07;;;;;;;;;;;7.00;99.90;;;;;;5071947;28;19950;-43
2023/03/14 10:58:34;;;;;;;;;;;7.10;99.90;;;;;;5067938;28;19965;-42
2023/03/14 11:01:03;;;;;;;;;;;7.10;99.90;;;;;;5071648;28;20387;-42
2023/03/14 11:03:31;;;;;;;;;;;7.20;99.90;;;;;;5071216;28;20365;-46
2023/03/14 11:05:58;;;;;;;;;;;7.20;99.90;;;;;;5054169;28;20044;-44
2023/03/14 11:08:26;;;;;;;;;;;7.30;99.90;;;;;;5071898;28;20306;-45
2023/03/14 11:10:53;;;;;;;;;;;7.20;99.90;;;;;;5053541;28;20411;-40
2023/03/14 11:13:22;;;;;;;;;;;7.30;99.90;;;;;;5071888;28;19990;-44
2023/03/14 11:15:51;;;;;;;;;;;7.30;99.90;;;;;;5070117;28;19950;-43
2023/03/14 11:18:31;;;;;;;;;;;7.40;99.90;;;;;;5049887;28;20055;-44
2023/03/14 11:21:00;;;;;;;;;;;7.50;99.90;;;;;;5070589;28;20368;-40
2023/03/14 11:23:28;;;;;;;;;;;7.50;99.90;;;;;;5071042;28;19944;-44
2023/03/14 11:25:58;;;;;;;;;;;7.50;99.90;;;;;;5060916;28;20470;-42
2023/03/14 11:28:27;;;;;;;;;;;7.40;99.90;;;;;;5085831;28;20038;-42
2023/03/14 11:30:54;;;;;;;;;;;7.40;99.90;;;;;;5075091;28;19949;-39
2023/03/14 11:33:23;;;;;;;;;;;7.30;99.90;;;;;;5069856;28;19940;-42
2023/03/14 11:35:50;;;;;;;;;;;7.30;99.90;;;;;;5070407;28;19944;-41
2023/03/14 11:38:24;;;;;;;;;;;7.40;99.90;;;;;;5087370;28;20509;-39
2023/03/14 11:40:51;;;;;;;;;;;7.40;99.90;;;;;;5055110;28;20033;-43
2023/03/14 11:43:18;;;;;;;;;;;7.50;99.90;;;;;;5069802;28;19954;-46
2023/03/14 11:45:45;;;;;;;;;;;7.60;99.90;;;;;;5082261;28;19944;-41
2023/03/14 11:48:15;;;;;;;;;;;7.80;99.90;;;;;;5076112;28;19946;-42
2023/03/14 11:50:43;;;;;;;;;;;7.90;99.90;;;;;;5087444;28;19953;-41
2023/03/14 11:53:10;;;;;;;;;;;8.00;99.90;;;;;;5088915;28;19954;-41
2023/03/14 11:55:38;;;;;;;;;;;8.00;99.90;;;;;;5063259;28;20035;-43
2023/03/14 11:58:10;;;;;;;;;;;8.00;99.90;;;;;;5051562;28;20012;-40
2023/03/14 12:00:37;;;;;;;;;;;8.00;99.90;;;;;;5056912;28;19944;-43
2023/03/14 12:03:05;;;;;;;;;;;8.10;99.90;;;;;;5070472;28;19983;-40
2023/03/14 12:05:34;;;;;;;;;;;8.30;99.90;;;;;;5070432;28;19953;-41
2023/03/14 12:08:13;;;;;;;;;;;8.30;99.90;;;;;;5064625;28;19980;-44
2023/03/14 12:10:41;;;;;;;;;;;8.40;99.90;;;;;;5070196;28;19948;-41
2023/03/14 12:13:08;;;;;;;;;;;8.30;99.90;;;;;;5052205;28;19946;-45
2023/03/14 12:15:36;;;;;;;;;;;8.30;99.90;;;;;;5059703;28;19981;-44
2023/03/14 12:18:03;;;;;;;;;;;8.30;99.90;;;;;;5051968;28;20177;-41
2023/03/14 12:20:30;;;;;;;;;;;8.50;99.90;;;;;;5068967;28;20016;-44
2023/03/14 12:22:58;;;;;;;;;;;8.70;99.90;;;;;;5034802;28;20831;-42
2023/03/14 12:25:25;;;;;;;;;;;8.80;99.90;;;;;;5037725;28;19957;-44
2023/03/14 12:28:10;;;;;;;;;;;9.00;99.90;;;;;;5032457;28;19946;-41
2023/03/14 12:30:38;;;;;;;;;;;9.00;99.90;;;;;;5032764;28;20023;-41
2023/03/14 12:33:22;;;;;;;;;;;9.20;99.90;;;;;;5032365;28;19955;-41
2023/03/14 12:35:49;;;;;;;;;;;9.30;99.90;;;;;;5043492;28;19991;-44
2023/03/14 12:38:16;;;;;;;;;;;9.40;99.90;;;;;;5052245;28;19975;-42
2023/03/14 12:40:47;;;;;;;;;;;9.60;99.90;;;;;;5052170;28;19945;-42
2023/03/14 12:43:24;;;;;;;;;;;9.70;99.90;;;;;;5069426;28;20370;-44
2023/03/14 12:46:05;;;;;;;;;;;9.70;98.40;;;;;;5079767;28;19973;-42
2023/03/14 12:48:33;;;;;;;;;;;9.70;99.90;;;;;;5068842;28;20001;-43
2023/03/14 12:51:01;;;;;;;;;;;9.70;98.90;;;;;;5069968;28;20333;-44
2023/03/14 12:53:49;;;;;;;;;;;9.50;99.90;;;;;;5050115;28;19946;-42
2023/03/14 12:56:25;;;;;;;;;;;9.30;99.90;;;;;;5069991;28;19947;-41
2023/03/14 12:59:13;;;;;;;;;;;9.00;99.90;;;;;;5069908;28;20020;-43
2023/03/14 13:01:44;;;;;;;;;;;8.70;99.90;;;;;;5048210;28;20000;-42
2023/03/14 13:04:12;;;;;;;;;;;8.60;99.90;;;;;;5073752;28;19948;-43
2023/03/14 13:06:46;;;;;;;;;;;8.60;99.90;;;;;;5056059;28;20315;-44
2023/03/14 13:09:31;;;;;;;;;;;8.70;99.90;;;;;;5073627;28;19988;-42
2023/03/14 13:12:02;;;;;;;;;;;8.70;99.90;;;;;;5073504;28;20016;-43
2023/03/14 13:14:29;;;;;;;;;;;8.60;99.90;;;;;;5072641;28;19998;-45
2023/03/14 13:16:55;;;;;;;;;;;8.50;99.90;;;;;;5072242;28;19948;-40
2023/03/14 13:19:24;;;;;;;;;;;8.40;99.80;;;;;;5073347;28;20031;-43
2023/03/14 13:21:51;;;;;;;;;;;8.50;99.90;;;;;;5055391;28;19946;-44
2023/03/14 13:24:21;;;;;;;;;;;8.50;99.90;;;;;;5073248;28;20367;-47
2023/03/14 13:26:48;;;;;;;;;;;8.60;98.80;;;;;;5055926;28;20424;-43
2023/03/14 13:29:16;;;;;;;;;;;8.60;99.90;;;;;;5054942;28;20036;-42
2023/03/14 13:31:44;;;;;;;;;;;8.50;99.90;;;;;;5072486;28;20019;-44
2023/03/14 13:34:11;;;;;;;;;;;8.50;99.90;;;;;;5055753;28;19998;-44
2023/03/14 13:36:39;;;;;;;;;;;8.50;99.40;;;;;;5055889;28;19947;-43
2023/03/14 13:39:07;;;;;;;;;;;8.60;99.30;;;;;;5055428;28;20001;-43
2023/03/14 13:41:34;;;;;;;;;;;8.70;98.60;;;;;;5054274;28;19943;-44
2023/03/14 13:44:02;;;;;;;;;;;8.90;99.00;;;;;;5055738;28;20010;-40
2023/03/14 13:46:28;;;;;;;;;;;9.10;99.80;;;;;;5056667;28;20446;-43
2023/03/14 13:48:55;;;;;;;;;;;9.30;98.20;;;;;;5057862;28;20368;-45
2023/03/14 13:51:22;;;;;;;;;;;9.30;96.60;;;;;;5083684;28;19944;-43
2023/03/14 13:53:51;;;;;;;;;;;9.30;95.50;;;;;;5090823;28;20070;-42
2023/03/14 13:56:18;;;;;;;;;;;9.30;96.20;;;;;;5092793;28;20463;-44
2023/03/14 13:58:44;;;;;;;;;;;9.20;96.80;;;;;;5089503;28;20072;-45
2023/03/14 14:01:13;;;;;;;;;;;9.10;97.60;;;;;;5085412;28;19992;-42
2023/03/14 14:03:40;;;;;;;;;;;9.00;99.20;;;;;;5094759;28;19952;-42
2023/03/14 14:06:08;;;;;;;;;;;9.00;98.00;;;;;;5074851;28;19946;-41
2023/03/14 14:08:35;;;;;;;;;;;8.90;94.30;;;;;;5074212;28;19949;-44
2023/03/14 14:11:04;;;;;;;;;;;8.70;95.80;;;;;;5065343;28;19995;-41
2023/03/14 14:13:31;;;;;;;;;;;8.40;96.60;;;;;;5073587;28;20058;-41
2023/03/14 14:15:57;;;;;;;;;;;8.20;96.10;;;;;;5076028;28;19974;-47
2023/03/14 14:18:25;;;;;;;;;;;8.10;96.70;;;;;;5076002;28;20330;-42
2023/03/14 14:20:51;;;;;;;;;;;8.00;98.90;;;;;;5076032;28;19970;-42
2023/03/14 14:23:19;;;;;;;;;;;7.90;99.90;;;;;;5055817;28;20322;-43
2023/03/14 14:25:45;;;;;;;;;;;7.80;99.90;;;;;;5073391;28;19950;-42
2023/03/14 14:28:17;;;;;;;;;;;7.80;99.90;;;;;;5056337;28;19946;-44
2023/03/14 14:30:44;;;;;;;;;;;7.90;99.90;;;;;;5074235;28;20002;-43